createdAt,value
2019-03-13T00:00:01.363Z,8.20
2019-03-13T00:02:33.566Z,7.20
2019-03-13T00:05:03.519Z,7.40
2019-03-13T00:07:33.306Z,7.90
2019-03-13T00:10:02.966Z,8.10
2019-03-13T00:12:32.495Z,8.20
2019-03-13T00:15:01.853Z,8.20
2019-03-13T00:17:31.405Z,8.20
2019-03-13T00:20:02.490Z,8.10
2019-03-13T00:22:31.976Z,8.00
2019-03-13T00:25:01.385Z,8.00
2019-03-13T00:27:31.110Z,8.00
2019-03-13T00:30:00.663Z,8.10
2019-03-13T00:32:30.032Z,8.00
2019-03-13T00:34:59.589Z,8.10
2019-03-13T00:37:29.481Z,8.10
2019-03-13T00:39:59.313Z,8.00
2019-03-13T00:42:28.927Z,8.00
2019-03-13T00:44:58.532Z,8.00
2019-03-13T00:47:27.847Z,6.70
2019-03-13T00:49:57.542Z,7.60
2019-03-13T00:52:27.025Z,7.80
2019-03-13T00:54:57.163Z,7.90
2019-03-13T00:57:28.046Z,7.90
2019-03-13T00:59:57.704Z,7.80
2019-03-13T01:02:32.134Z,7.80
2019-03-13T01:05:29.450Z,7.70
2019-03-13T01:07:59.154Z,7.70
2019-03-13T01:10:28.789Z,7.70
2019-03-13T01:12:58.417Z,7.60
2019-03-13T01:15:28.073Z,7.60
2019-03-13T01:17:58.603Z,7.50
2019-03-13T01:20:28.155Z,7.60
2019-03-13T01:22:57.656Z,7.50
2019-03-13T01:25:27.192Z,7.50
2019-03-13T01:27:56.829Z,7.40
2019-03-13T01:30:27.913Z,7.30
2019-03-13T01:33:02.698Z,7.20
2019-03-13T01:35:38.900Z,7.20
2019-03-13T01:38:08.407Z,7.20
2019-03-13T01:40:38.011Z,7.10
2019-03-13T01:43:07.549Z,7.10
2019-03-13T01:45:36.872Z,7.10
2019-03-13T01:48:06.482Z,7.00
2019-03-13T01:50:36.061Z,7.00
2019-03-13T01:53:05.341Z,6.90
2019-03-13T01:55:35.140Z,6.90
2019-03-13T01:58:04.645Z,6.90
2019-03-13T02:00:34.421Z,6.90
2019-03-13T02:03:03.745Z,7.00
2019-03-13T02:05:33.034Z,6.90
2019-03-13T02:08:02.404Z,6.90
2019-03-13T02:10:31.599Z,6.90
2019-03-13T02:13:01.114Z,7.00
2019-03-13T02:15:30.364Z,7.00
2019-03-13T02:17:59.678Z,7.10
2019-03-13T02:20:30.343Z,7.10
2019-03-13T02:23:00.203Z,7.10
2019-03-13T02:25:29.883Z,7.10
2019-03-13T02:27:59.473Z,7.20
2019-03-13T02:30:29.897Z,7.10
2019-03-13T02:32:59.160Z,7.10
2019-03-13T02:35:28.394Z,7.10
2019-03-13T02:37:58.059Z,7.10
2019-03-13T02:40:27.646Z,7.10
2019-03-13T02:42:56.900Z,7.10
2019-03-13T02:45:26.147Z,7.10
2019-03-13T02:47:55.703Z,6.10
2019-03-13T02:50:24.951Z,7.10
2019-03-13T02:52:54.510Z,7.10
2019-03-13T02:55:23.770Z,7.10
2019-03-13T02:57:53.395Z,7.20
2019-03-13T03:00:32.598Z,7.20
2019-03-13T03:03:03.612Z,7.20
2019-03-13T03:05:32.903Z,7.20
2019-03-13T03:08:02.126Z,7.20
2019-03-13T03:10:31.737Z,7.10
2019-03-13T03:13:01.083Z,7.10
2019-03-13T03:15:30.348Z,7.10
2019-03-13T03:17:59.603Z,7.10
2019-03-13T03:20:28.822Z,7.10
2019-03-13T03:22:58.353Z,7.10
2019-03-13T03:25:27.786Z,7.00
2019-03-13T03:27:57.555Z,6.90
2019-03-13T03:30:27.054Z,6.90
2019-03-13T03:32:56.597Z,6.90
2019-03-13T03:35:26.160Z,6.90
2019-03-13T03:37:55.995Z,6.90
2019-03-13T03:40:25.461Z,6.90
2019-03-13T03:42:55.208Z,6.90
2019-03-13T03:45:24.727Z,6.90
2019-03-13T03:47:54.212Z,6.80
2019-03-13T03:50:23.723Z,6.90
2019-03-13T03:52:56.090Z,6.80
2019-03-13T03:55:25.262Z,6.80
2019-03-13T03:57:55.267Z,6.80
2019-03-13T04:00:24.754Z,6.70
2019-03-13T04:02:54.420Z,6.70
2019-03-13T04:05:24.337Z,6.70
2019-03-13T04:07:53.798Z,6.70
2019-03-13T04:10:23.251Z,6.70
2019-03-13T04:12:52.818Z,6.30
2019-03-13T04:15:22.255Z,6.70
2019-03-13T04:17:51.612Z,6.60
2019-03-13T04:20:21.046Z,6.60
2019-03-13T04:22:50.213Z,6.60
2019-03-13T04:25:35.886Z,6.60
2019-03-13T04:28:05.632Z,6.50
2019-03-13T04:30:35.023Z,6.50
2019-03-13T04:33:04.482Z,6.40
2019-03-13T04:35:33.788Z,6.40
2019-03-13T04:38:03.243Z,6.30
2019-03-13T04:40:32.758Z,6.30
2019-03-13T04:43:02.324Z,6.30
2019-03-13T04:45:31.772Z,6.30
2019-03-13T04:48:00.994Z,6.30
2019-03-13T04:50:30.244Z,6.30
2019-03-13T04:52:59.409Z,6.30
2019-03-13T04:55:28.663Z,6.30
2019-03-13T04:57:58.693Z,6.40
2019-03-13T05:00:27.870Z,6.40
2019-03-13T05:02:57.244Z,6.40
2019-03-13T05:05:42.266Z,6.40
2019-03-13T05:08:14.061Z,6.40
2019-03-13T05:10:43.355Z,6.40
2019-03-13T05:13:12.544Z,6.40
2019-03-13T05:15:41.921Z,6.50
2019-03-13T05:18:11.080Z,6.50
2019-03-13T05:20:40.398Z,6.60
2019-03-13T05:23:09.693Z,6.70
2019-03-13T05:25:38.969Z,6.70
2019-03-13T05:28:08.186Z,6.70
2019-03-13T05:30:37.487Z,6.70
2019-03-13T05:33:06.645Z,6.80
2019-03-13T05:35:35.830Z,6.90
2019-03-13T05:38:05.116Z,7.00
2019-03-13T05:40:34.435Z,7.00
2019-03-13T05:43:03.949Z,6.90
2019-03-13T05:45:33.137Z,6.90
2019-03-13T05:48:02.344Z,6.90
2019-03-13T05:50:31.868Z,7.00
2019-03-13T05:53:01.176Z,7.00
2019-03-13T05:55:30.493Z,7.00
2019-03-13T05:57:59.751Z,7.00
2019-03-13T06:00:29.936Z,7.00
2019-03-13T06:02:59.519Z,7.00
2019-03-13T06:05:28.873Z,6.90
2019-03-13T06:07:58.224Z,6.90
2019-03-13T06:10:27.570Z,6.90
2019-03-13T06:12:56.956Z,6.90
2019-03-13T06:15:26.155Z,6.90
2019-03-13T06:17:55.393Z,7.00
2019-03-13T06:20:24.577Z,7.00
2019-03-13T06:22:54.012Z,7.00
2019-03-13T06:25:23.403Z,7.10
2019-03-13T06:27:52.690Z,7.20
2019-03-13T06:30:21.949Z,7.30
2019-03-13T06:32:51.148Z,7.40
2019-03-13T06:35:23.404Z,7.40
2019-03-13T06:37:51.447Z,7.50
2019-03-13T06:40:20.653Z,7.60
2019-03-13T06:42:50.145Z,7.60
2019-03-13T06:45:19.472Z,7.50
2019-03-13T06:47:49.389Z,7.50
2019-03-13T06:50:19.249Z,7.60
2019-03-13T06:52:48.597Z,7.50
2019-03-13T06:55:17.868Z,7.50
2019-03-13T06:57:47.197Z,7.60
2019-03-13T07:00:35.980Z,7.50
2019-03-13T07:03:15.588Z,7.50
2019-03-13T07:06:01.253Z,7.60
2019-03-13T07:09:01.679Z,7.70
2019-03-13T07:11:52.854Z,7.60
2019-03-13T07:14:50.359Z,7.70
2019-03-13T07:17:30.923Z,7.80
2019-03-13T07:20:17.664Z,7.90
2019-03-13T07:23:05.970Z,8.00
2019-03-13T07:25:40.641Z,8.10
2019-03-13T07:28:28.481Z,8.30
2019-03-13T07:31:14.657Z,8.20
2019-03-13T07:34:01.348Z,8.20
2019-03-13T07:36:52.715Z,8.00
2019-03-13T07:39:28.821Z,8.20
2019-03-13T07:42:15.442Z,8.30
2019-03-13T07:44:56.254Z,8.30
2019-03-13T07:47:50.933Z,8.10
2019-03-13T07:50:39.354Z,7.80
2019-03-13T07:53:33.992Z,7.20
2019-03-13T07:56:12.796Z,6.90
2019-03-13T07:59:07.402Z,6.60
2019-03-13T08:01:46.102Z,6.60
2019-03-13T08:04:24.160Z,6.70
2019-03-13T08:07:08.816Z,6.80
2019-03-13T08:09:59.889Z,6.60
2019-03-13T08:12:54.174Z,6.70
2019-03-13T08:15:39.992Z,7.00
2019-03-13T08:18:33.106Z,7.10
2019-03-13T08:21:30.626Z,6.90
2019-03-13T08:24:19.025Z,7.60
2019-03-13T08:27:10.165Z,7.60
2019-03-13T08:30:07.298Z,7.70
2019-03-13T08:33:14.109Z,7.80
2019-03-13T08:36:11.401Z,7.90
2019-03-13T08:39:11.924Z,8.20
2019-03-13T08:41:58.714Z,8.10
2019-03-13T08:44:36.707Z,8.10
2019-03-13T08:47:36.897Z,8.10
2019-03-13T08:50:16.019Z,8.00
2019-03-13T08:53:00.424Z,8.10
2019-03-13T08:55:43.621Z,8.00
2019-03-13T08:58:25.032Z,8.00
2019-03-13T09:01:22.192Z,8.00
2019-03-13T09:04:19.297Z,8.10
2019-03-13T09:07:11.988Z,8.10
2019-03-13T09:09:58.924Z,8.40
2019-03-13T09:12:40.061Z,8.50
2019-03-13T09:15:38.798Z,8.80
2019-03-13T09:18:22.126Z,8.60
2019-03-13T09:21:08.849Z,8.50
2019-03-13T09:23:49.681Z,9.10
2019-03-13T09:26:40.704Z,9.10
2019-03-13T09:29:32.196Z,9.40
2019-03-13T09:32:20.229Z,9.40
2019-03-13T09:35:06.857Z,9.40
2019-03-13T09:37:52.722Z,9.30
2019-03-13T09:40:49.764Z,9.20
2019-03-13T09:43:26.264Z,9.10
2019-03-13T09:46:11.345Z,9.40
2019-03-13T09:49:05.625Z,9.00
2019-03-13T09:51:42.499Z,9.20
2019-03-13T09:54:28.364Z,9.30
2019-03-13T09:57:22.778Z,9.50
2019-03-13T10:00:10.998Z,9.60
2019-03-13T10:03:11.213Z,9.50
2019-03-13T10:05:57.129Z,9.30
2019-03-13T10:08:45.782Z,9.40
2019-03-13T10:11:25.172Z,9.30
2019-03-13T10:14:16.449Z,9.10
2019-03-13T10:17:16.693Z,9.20
2019-03-13T10:20:05.347Z,9.40
2019-03-13T10:22:53.612Z,9.00
2019-03-13T10:25:42.237Z,8.70
2019-03-13T10:28:22.803Z,8.80
2019-03-13T10:31:09.443Z,8.90
2019-03-13T10:33:59.962Z,9.40
2019-03-13T10:36:37.760Z,9.00
2019-03-13T10:39:30.250Z,8.80
2019-03-13T10:42:14.421Z,9.00
2019-03-13T10:44:55.139Z,9.00
2019-03-13T10:47:47.233Z,9.10
2019-03-13T10:50:33.868Z,9.40
2019-03-13T10:53:21.193Z,9.30
2019-03-13T10:56:24.317Z,8.90
2019-03-13T10:59:01.209Z,8.60
2019-03-13T11:01:52.464Z,7.00
2019-03-13T11:04:27.906Z,7.20
2019-03-13T11:07:22.325Z,6.60
2019-03-13T11:10:00.470Z,6.90
2019-03-13T11:12:48.867Z,7.50
2019-03-13T11:15:23.746Z,7.80
2019-03-13T11:18:10.695Z,8.10
2019-03-13T11:20:57.419Z,9.10
2019-03-13T11:23:39.396Z,8.70
2019-03-13T11:26:27.977Z,8.90
2019-03-13T11:29:09.333Z,8.90
2019-03-13T11:31:59.140Z,9.20
2019-03-13T11:34:38.089Z,9.00
2019-03-13T11:37:32.569Z,9.10
2019-03-13T11:40:20.840Z,9.00
2019-03-13T11:43:01.854Z,8.90
2019-03-13T11:45:48.583Z,9.00
2019-03-13T11:48:43.050Z,9.30
2019-03-13T11:51:25.285Z,9.00
2019-03-13T11:54:22.304Z,9.30
2019-03-13T11:57:13.536Z,9.20
2019-03-13T12:00:07.673Z,9.50
2019-03-13T12:02:47.435Z,9.40
2019-03-13T12:05:24.170Z,9.40
2019-03-13T12:08:21.243Z,9.80
2019-03-13T12:11:09.449Z,9.70
2019-03-13T12:13:56.227Z,9.80
2019-03-13T12:16:40.153Z,9.90
2019-03-13T12:19:33.858Z,10.10
2019-03-13T12:22:22.266Z,10.00
2019-03-13T12:25:09.228Z,10.10
2019-03-13T12:27:49.751Z,10.50
2019-03-13T12:30:43.764Z,9.90
2019-03-13T12:33:23.507Z,9.90
2019-03-13T12:36:03.807Z,10.30
2019-03-13T12:38:55.233Z,10.60
2019-03-13T12:41:45.673Z,10.40
2019-03-13T12:44:52.103Z,10.30
2019-03-13T12:47:38.411Z,10.30
2019-03-13T12:50:36.973Z,10.50
2019-03-13T12:53:34.237Z,10.30
2019-03-13T12:56:13.108Z,10.00
2019-03-13T12:59:00.423Z,9.80
2019-03-13T13:01:36.218Z,10.00
2019-03-13T13:04:15.907Z,10.10
2019-03-13T13:07:00.639Z,10.00
2019-03-13T13:09:51.805Z,9.80
2019-03-13T13:12:52.384Z,10.00
2019-03-13T13:15:43.759Z,9.80
2019-03-13T13:18:41.124Z,9.90
2019-03-13T13:21:11.719Z,10.00
2019-03-13T13:23:40.954Z,10.20
2019-03-13T13:26:10.344Z,9.90
2019-03-13T13:28:39.719Z,9.70
2019-03-13T13:31:09.346Z,9.90
2019-03-13T13:33:39.016Z,10.10
2019-03-13T13:36:08.349Z,10.30
2019-03-13T13:38:37.558Z,11.50
2019-03-13T13:41:06.863Z,11.50
2019-03-13T13:43:36.250Z,10.80
2019-03-13T13:46:31.696Z,10.70
2019-03-13T13:49:01.836Z,10.10
2019-03-13T13:51:32.868Z,10.10
2019-03-13T13:54:02.389Z,10.20
2019-03-13T13:56:31.726Z,9.90
2019-03-13T13:59:01.070Z,10.10
2019-03-13T14:01:30.431Z,10.10
2019-03-13T14:03:59.797Z,9.90
2019-03-13T14:06:29.077Z,9.90
2019-03-13T14:08:58.345Z,9.50
2019-03-13T14:11:27.784Z,9.60
2019-03-13T14:13:57.133Z,9.70
2019-03-13T14:16:26.360Z,9.60
2019-03-13T14:18:55.580Z,9.60
2019-03-13T14:21:25.162Z,9.50
2019-03-13T14:23:54.444Z,9.40
2019-03-13T14:26:23.852Z,9.40
2019-03-13T14:28:53.160Z,9.50
2019-03-13T14:31:22.563Z,9.40
2019-03-13T14:33:52.175Z,9.30
2019-03-13T14:36:21.381Z,9.40
2019-03-13T14:38:50.666Z,9.30
2019-03-13T14:41:19.965Z,9.40
2019-03-13T14:43:49.270Z,9.30
2019-03-13T14:46:18.632Z,9.30
2019-03-13T14:48:47.943Z,9.30
2019-03-13T14:51:17.241Z,9.40
2019-03-13T14:53:46.557Z,9.20
2019-03-13T14:56:15.987Z,9.40
2019-03-13T14:58:45.023Z,9.40
2019-03-13T15:01:14.377Z,9.50
2019-03-13T15:03:43.699Z,9.40
2019-03-13T15:06:12.969Z,9.40
2019-03-13T15:08:42.311Z,9.50
2019-03-13T15:11:13.713Z,9.50
2019-03-13T15:13:43.102Z,9.40
2019-03-13T15:16:12.422Z,9.30
2019-03-13T15:18:41.678Z,9.40
2019-03-13T15:21:11.007Z,9.60
2019-03-13T15:23:40.205Z,9.90
2019-03-13T15:26:09.422Z,9.90
2019-03-13T15:28:38.826Z,9.80
2019-03-13T15:31:08.548Z,9.70
2019-03-13T15:33:37.835Z,9.70
2019-03-13T15:36:07.113Z,9.60
2019-03-13T15:38:36.783Z,9.80
2019-03-13T15:41:06.010Z,9.80
2019-03-13T15:43:35.338Z,10.60
2019-03-13T15:46:04.533Z,12.00
2019-03-13T15:48:33.870Z,11.80
2019-03-13T15:51:03.218Z,12.70
2019-03-13T15:53:32.710Z,13.20
2019-03-13T15:56:01.921Z,12.30
2019-03-13T15:58:31.568Z,11.40
2019-03-13T16:01:00.938Z,10.10
2019-03-13T16:03:30.294Z,9.80
2019-03-13T16:05:59.684Z,9.50
2019-03-13T16:08:28.933Z,9.50
2019-03-13T16:10:58.513Z,9.40
2019-03-13T16:13:27.796Z,9.50
2019-03-13T16:15:57.183Z,9.30
2019-03-13T16:18:26.774Z,9.40
2019-03-13T16:20:56.119Z,9.30
2019-03-13T16:23:25.378Z,9.20
2019-03-13T16:25:55.073Z,9.30
2019-03-13T16:28:24.607Z,9.10
2019-03-13T16:30:54.497Z,9.20
2019-03-13T16:33:23.681Z,9.10
2019-03-13T16:35:52.995Z,9.10
2019-03-13T16:38:22.328Z,9.20
2019-03-13T16:40:51.717Z,9.10
2019-03-13T16:43:21.074Z,9.20
2019-03-13T16:45:50.388Z,9.10
2019-03-13T16:48:19.612Z,9.10
2019-03-13T16:50:48.928Z,9.10
2019-03-13T16:53:18.486Z,8.90
2019-03-13T16:55:47.796Z,8.90
2019-03-13T16:58:17.057Z,8.90
2019-03-13T17:00:46.281Z,8.90
2019-03-13T17:03:15.607Z,9.00
2019-03-13T17:05:45.037Z,9.00
2019-03-13T17:08:14.498Z,8.90
2019-03-13T17:10:44.388Z,8.90
2019-03-13T17:13:14.041Z,8.80
2019-03-13T17:15:43.275Z,8.80
2019-03-13T17:18:12.622Z,8.80
2019-03-13T17:20:41.840Z,8.80
2019-03-13T17:23:11.381Z,8.70
2019-03-13T17:25:40.683Z,8.60
2019-03-13T17:28:10.013Z,8.50
2019-03-13T17:30:39.873Z,8.30
2019-03-13T17:33:09.074Z,8.30
2019-03-13T17:35:38.327Z,8.30
2019-03-13T17:38:07.784Z,8.20
2019-03-13T17:40:36.957Z,8.00
2019-03-13T17:43:06.221Z,8.00
2019-03-13T17:45:35.504Z,8.00
2019-03-13T17:48:06.266Z,8.00
2019-03-13T17:50:35.516Z,8.00
2019-03-13T17:53:05.093Z,8.10
2019-03-13T17:55:34.397Z,8.00
2019-03-13T17:58:03.733Z,8.00
2019-03-13T18:00:39.090Z,8.00
2019-03-13T18:03:08.374Z,8.00
2019-03-13T18:05:37.917Z,8.00
2019-03-13T18:08:07.342Z,8.10
2019-03-13T18:10:36.604Z,8.10
2019-03-13T18:13:06.235Z,8.10
2019-03-13T18:15:35.524Z,8.00
2019-03-13T18:18:04.953Z,8.00
2019-03-13T18:20:34.174Z,7.90
2019-03-13T18:23:03.528Z,7.80
2019-03-13T18:25:32.828Z,7.60
2019-03-13T18:28:03.577Z,7.50
2019-03-13T18:30:32.879Z,7.50
2019-03-13T18:33:02.074Z,7.50
2019-03-13T18:35:31.292Z,7.40
2019-03-13T18:38:01.786Z,7.30
2019-03-13T18:40:31.217Z,7.30
2019-03-13T18:43:00.672Z,7.30
2019-03-13T18:45:30.235Z,7.30
2019-03-13T18:47:59.846Z,7.20
2019-03-13T18:50:29.150Z,7.30
2019-03-13T18:52:58.658Z,7.30
2019-03-13T18:55:27.954Z,7.30
2019-03-13T18:57:57.267Z,7.30
2019-03-13T19:00:28.081Z,7.40
2019-03-13T19:02:57.416Z,7.40
2019-03-13T19:05:27.201Z,7.20
2019-03-13T19:07:56.782Z,7.00
2019-03-13T19:10:26.288Z,7.00
2019-03-13T19:12:55.517Z,6.90
2019-03-13T19:15:24.998Z,7.00
2019-03-13T19:17:54.580Z,6.80
2019-03-13T19:20:23.929Z,6.30
2019-03-13T19:22:53.513Z,6.40
2019-03-13T19:25:22.797Z,6.30
2019-03-13T19:27:52.232Z,6.30
2019-03-13T19:30:23.372Z,6.40
2019-03-13T19:32:53.133Z,6.30
2019-03-13T19:35:22.400Z,6.40
2019-03-13T19:37:51.690Z,6.40
2019-03-13T19:40:20.969Z,6.40
2019-03-13T19:42:50.260Z,6.30
2019-03-13T19:45:28.658Z,6.20
2019-03-13T19:48:01.049Z,6.00
2019-03-13T19:50:29.473Z,5.90
2019-03-13T19:52:58.752Z,6.00
2019-03-13T19:55:27.977Z,6.00
2019-03-13T19:58:06.298Z,6.00
2019-03-13T20:00:35.769Z,6.10
2019-03-13T20:03:06.053Z,6.20
2019-03-13T20:05:44.929Z,6.20
2019-03-13T20:08:06.271Z,6.20
2019-03-13T20:10:35.638Z,6.30
2019-03-13T20:13:05.169Z,6.40
2019-03-13T20:15:34.772Z,6.40
2019-03-13T20:18:04.394Z,6.50
2019-03-13T20:20:33.922Z,6.60
2019-03-13T20:23:03.229Z,6.60
2019-03-13T20:25:32.516Z,6.70
2019-03-13T20:28:01.839Z,6.70
2019-03-13T20:30:31.221Z,6.70
2019-03-13T20:33:00.474Z,6.70
2019-03-13T20:35:29.682Z,6.70
2019-03-13T20:37:58.921Z,6.70
2019-03-13T20:40:28.285Z,6.70
2019-03-13T20:42:57.857Z,6.70
2019-03-13T20:45:27.039Z,6.70
2019-03-13T20:47:56.876Z,6.20
2019-03-13T20:50:36.003Z,5.40
2019-03-13T20:52:57.321Z,5.30
2019-03-13T20:55:26.497Z,5.20
2019-03-13T20:57:55.699Z,5.20
2019-03-13T21:00:25.213Z,5.20
2019-03-13T21:02:54.856Z,5.10
2019-03-13T21:05:24.333Z,5.20
2019-03-13T21:07:53.607Z,5.10
2019-03-13T21:10:23.140Z,5.00
2019-03-13T21:12:52.420Z,5.00
2019-03-13T21:15:22.010Z,5.10
2019-03-13T21:17:51.284Z,5.10
2019-03-13T21:20:20.633Z,5.30
2019-03-13T21:22:50.562Z,5.30
2019-03-13T21:25:20.020Z,5.40
2019-03-13T21:27:49.295Z,5.50
2019-03-13T21:30:20.903Z,5.50
2019-03-13T21:32:50.260Z,5.50
2019-03-13T21:35:20.068Z,5.60
2019-03-13T21:37:49.267Z,5.50
2019-03-13T21:40:19.121Z,5.60
2019-03-13T21:42:48.745Z,5.60
2019-03-13T21:45:22.877Z,5.70
2019-03-13T21:47:49.404Z,5.70
2019-03-13T21:50:19.062Z,5.70
2019-03-13T21:52:48.282Z,5.70
2019-03-13T21:55:17.785Z,5.80
2019-03-13T21:57:47.128Z,5.90
2019-03-13T22:00:19.493Z,6.00
2019-03-13T22:02:50.696Z,6.10
2019-03-13T22:05:25.504Z,6.10
2019-03-13T22:07:56.412Z,6.10
2019-03-13T22:10:28.481Z,6.20
2019-03-13T22:13:13.360Z,6.20
2019-03-13T22:15:52.748Z,6.20
2019-03-13T22:18:28.136Z,6.30
2019-03-13T22:21:05.593Z,6.30
2019-03-13T22:26:53.730Z,6.40
2019-03-13T22:32:48.313Z,6.20
2019-03-13T22:35:45.312Z,6.20
2019-03-13T22:38:15.049Z,6.20
2019-03-13T22:40:58.132Z,6.30
2019-03-13T22:43:29.454Z,6.20
2019-03-13T22:45:58.752Z,6.20
2019-03-13T22:48:28.132Z,6.30
2019-03-13T22:50:57.455Z,6.30
2019-03-13T22:54:03.313Z,6.30
2019-03-13T22:56:39.012Z,6.20
2019-03-13T22:59:08.314Z,6.30
2019-03-13T23:01:42.834Z,6.40
2019-03-13T23:04:11.266Z,6.40
2019-03-13T23:06:40.881Z,6.40
2019-03-13T23:09:12.697Z,6.50
2019-03-13T23:11:42.374Z,6.50
2019-03-13T23:14:11.716Z,6.50
2019-03-13T23:16:41.244Z,6.50
2019-03-13T23:19:10.904Z,6.60
2019-03-13T23:21:40.119Z,6.50
2019-03-13T23:24:09.465Z,6.50
2019-03-13T23:26:38.715Z,6.50
2019-03-13T23:29:08.019Z,6.40
2019-03-13T23:31:37.343Z,6.50
2019-03-13T23:34:06.577Z,6.50
2019-03-13T23:36:35.890Z,6.50
2019-03-13T23:39:06.465Z,6.60
2019-03-13T23:41:35.778Z,6.60
2019-03-13T23:44:04.996Z,6.60
2019-03-13T23:46:34.198Z,6.70
2019-03-13T23:49:03.449Z,6.70
2019-03-13T23:51:33.052Z,6.70
2019-03-13T23:54:02.468Z,6.70
2019-03-13T23:56:32.154Z,6.70
2019-03-13T23:59:01.797Z,6.70
